Time;durP1;ratioP1;P1;durP2;ratioP2;P2;SDS_P1;SDS_P2;PMS_P1;PMS_P2;Temp;Humidity;BMP_temperature;BMP_pressure;BME280_temperature;BME280_humidity;BME280_pressure;Samples;Min_cycle;Max_cycle;Signal;HPM_P1;HPM_P2
2022/02/04 00:05:49;;;;;;;;;4.25;4.25;;;;;7.26;45.38;101559.81;146601;570;47020;-70
2022/02/04 00:21:25;;;;;;;;;4.50;3.25;;;;;7.15;45.99;101571.88;146597;611;46016;-71
2022/02/04 00:24:19;;;;;;;;;5.00;4.75;;;;;7.15;44.98;101567.62;146600;581;46021;-70
2022/02/04 00:27:14;;;;;;;;;4.25;4.25;;;;;7.12;44.54;101569.06;146598;626;46016;-70
2022/02/04 00:30:13;;;;;;;;;3.50;3.50;;;;;7.10;43.96;101560.31;146600;585;46012;-70
2022/02/04 00:33:07;;;;;;;;;5.75;4.75;;;;;7.10;43.56;101584.44;146600;615;46016;-69
2022/02/04 00:36:08;;;;;;;;;5.25;4.00;;;;;7.11;44.42;101575.91;146599;583;46008;-70
2022/02/04 00:39:05;;;;;;;;;4.00;4.00;;;;;7.10;43.35;101571.53;146598;607;46017;-69
2022/02/04 00:42:06;;;;;;;;;5.00;5.00;;;;;7.08;44.40;101574.78;146604;575;46012;-69
2022/02/04 00:45:12;;;;;;;;;7.00;5.00;;;;;7.09;43.06;101574.00;146595;581;48917;-68
2022/02/04 00:51:27;;;;;;;;;5.75;4.75;;;;;7.06;43.69;101569.47;146603;585;46016;-68
2022/02/04 00:54:25;;;;;;;;;4.00;4.00;;;;;7.06;44.77;101571.16;146607;652;46009;-71
2022/02/04 00:57:45;;;;;;;;;7.50;6.50;;;;;7.06;44.55;101581.47;146604;602;46016;-69
2022/02/04 01:25:51;;;;;;;;;6.00;5.25;;;;;7.01;44.18;101580.22;146608;608;46020;-70
2022/02/04 01:26:19;;;;;;;;;8.75;7.00;;;;;7.07;45.17;101578.12;146604;565;47008;-69
2022/02/04 01:29:12;;;;;;;;;8.00;8.00;;;;;7.06;45.21;101568.59;146606;591;46012;-70
2022/02/04 01:32:06;;;;;;;;;11.50;10.25;;;;;7.08;46.07;101574.78;146606;564;46020;-69
2022/02/04 01:34:58;;;;;;;;;5.75;5.00;;;;;7.08;44.56;101588.56;146605;597;46010;-68
2022/02/04 01:37:50;;;;;;;;;19.50;17.75;;;;;7.08;45.19;101578.25;146605;591;46012;-69
2022/02/04 01:40:42;;;;;;;;;11.25;11.25;;;;;7.08;45.58;101570.50;146602;611;47010;-69
2022/02/04 01:43:34;;;;;;;;;13.00;10.50;;;;;7.08;44.76;101583.41;146603;566;46020;-68
2022/02/04 01:46:26;;;;;;;;;7.50;7.50;;;;;7.08;45.47;101574.78;146602;583;47012;-69
2022/02/04 01:49:19;;;;;;;;;6.00;6.00;;;;;7.08;45.15;101577.34;146606;599;46020;-68
2022/02/04 01:52:12;;;;;;;;;10.00;9.00;;;;;7.06;44.86;101574.62;146603;653;46917;-69
2022/02/04 01:55:04;;;;;;;;;6.75;6.25;;;;;7.04;44.99;101576.22;146602;566;47008;-71
2022/02/04 01:57:57;;;;;;;;;5.50;5.50;;;;;6.97;45.53;101593.66;146601;605;46016;-72
2022/02/04 02:00:49;;;;;;;;;7.75;5.75;;;;;6.86;47.31;101593.69;146601;617;47008;-72
2022/02/04 02:03:41;;;;;;;;;7.00;5.00;;;;;6.80;47.44;101598.38;146602;563;46016;-73
2022/02/04 02:06:51;;;;;;;;;5.00;3.50;;;;;6.72;47.83;101612.31;146605;577;46020;-72
2022/02/04 02:13:23;;;;;;;;;5.00;5.00;;;;;6.48;48.60;101606.97;146605;602;46020;-69
2022/02/04 02:16:41;;;;;;;;;6.00;5.00;;;;;6.38;48.27;101604.41;146607;618;46016;-69
2022/02/04 02:36:07;;;;;;;;;9.75;9.00;;;;;5.95;48.22;101624.06;146604;600;47010;-72
2022/02/04 02:39:50;;;;;;;;;8.00;7.75;;;;;6.07;48.36;101630.97;146606;570;46008;-72
2022/02/04 02:46:29;;;;;;;;;7.50;7.50;;;;;6.10;46.48;101641.53;146609;572;45023;-70
2022/02/04 03:01:18;;;;;;;;;9.25;7.50;;;;;5.56;45.76;101658.44;146607;579;46008;-69
2022/02/04 03:04:36;;;;;;;;;8.00;8.00;;;;;5.49;46.58;101650.97;146603;595;46016;-74
2022/02/04 03:11:33;;;;;;;;;6.25;6.00;;;;;5.30;46.40;101673.31;146605;604;46012;-74
2022/02/04 03:19:03;;;;;;;;;8.75;8.00;;;;;5.21;46.41;101677.66;146601;590;46016;-75
2022/02/04 03:22:22;;;;;;;;;13.50;9.75;;;;;5.18;46.40;101675.69;146604;591;46021;-74
2022/02/04 03:25:38;;;;;;;;;13.25;12.25;;;;;5.19;46.88;101676.59;146605;655;46920;-75
2022/02/04 03:29:11;;;;;;;;;16.25;15.00;;;;;5.20;47.03;101684.47;146606;669;47008;-74
2022/02/04 03:32:18;;;;;;;;;18.75;14.25;;;;;5.17;46.49;101689.34;146607;606;46029;-74
2022/02/04 03:36:18;;;;;;;;;;;;;;;;;;;;;
2022/02/04 03:39:36;;;;;;;;;14.50;11.00;;;;;5.17;46.87;101686.75;146604;563;46025;-75
2022/02/04 03:42:59;;;;;;;;;13.00;13.00;;;;;5.13;47.68;101705.22;146609;615;46020;-75
2022/02/04 03:46:14;;;;;;;;;10.50;10.25;;;;;5.10;47.49;101711.00;146605;592;46010;-74
2022/02/04 03:49:14;;;;;;;;;12.50;11.00;;;;;5.06;47.43;101710.59;146605;577;46008;-75
2022/02/04 03:52:16;;;;;;;;;6.00;6.00;;;;;5.02;47.92;101712.00;146601;604;46017;-75
2022/02/04 03:56:04;;;;;;;;;11.50;10.50;;;;;5.01;47.72;101715.31;146605;583;46008;-75
2022/02/04 03:59:03;;;;;;;;;11.50;10.00;;;;;4.99;47.48;101721.13;146600;605;46017;-74
2022/02/04 04:02:18;;;;;;;;;;;;;;;;;;;;;
2022/02/04 04:05:21;;;;;;;;;12.50;10.75;;;;;4.94;47.49;101730.97;146600;584;46016;-75
2022/02/04 04:08:31;;;;;;;;;8.00;8.00;;;;;4.96;47.16;101742.31;146600;615;46008;-75
2022/02/04 04:11:46;;;;;;;;;8.00;8.00;;;;;4.98;47.42;101739.84;146604;572;46016;-75
2022/02/04 04:14:49;;;;;;;;;8.75;8.75;;;;;4.98;47.45;101740.75;146604;580;46021;-75
2022/02/04 04:18:28;;;;;;;;;9.50;7.50;;;;;4.07;47.38;101579.28;146600;563;46032;-74
2022/02/04 04:22:06;;;;;;;;;6.25;6.25;;;;;5.07;46.41;101757.00;146602;570;46021;-75
2022/02/04 04:25:14;;;;;;;;;12.00;9.00;;;;;5.14;46.91;101754.97;146603;678;46016;-75
2022/02/04 04:28:27;;;;;;;;;10.50;7.50;;;;;5.19;46.50;101746.91;146601;584;46021;-74
2022/02/04 04:31:40;;;;;;;;;8.25;8.25;;;;;5.28;46.41;101754.56;146601;579;47010;-68
2022/02/04 04:35:16;;;;;;;;;6.00;5.25;;;;;5.34;44.94;101739.66;146604;645;46020;-69
2022/02/04 04:38:48;;;;;;;;;15.00;11.00;;;;;5.37;47.25;101732.22;146603;604;46010;-69
2022/02/04 04:45:58;;;;;;;;;14.00;10.25;;;;;5.30;47.43;101742.75;146598;628;46017;-69
2022/02/04 05:29:20;;;;;;;;;20.50;16.50;;;;;4.52;49.83;101735.72;146599;617;46022;-70
2022/02/04 05:32:45;;;;;;;;;;;;;;;;;;;;;
2022/02/04 05:36:03;;;;;;;;;;;;;;;;;;;;;
2022/02/04 05:39:24;;;;;;;;;25.50;18.00;;;;;4.60;49.87;101738.19;146604;712;46008;-70
2022/02/04 05:42:25;;;;;;;;;21.50;19.50;;;;;4.71;50.14;101740.88;146603;564;47923;-70
2022/02/04 05:46:13;;;;;;;;;25.75;23.75;;;;;4.83;50.11;101741.97;146605;597;46020;-71
2022/02/04 05:49:45;;;;;;;;;;;;;;;;;;;;;
2022/02/04 05:53:16;;;;;;;;;26.00;23.00;;;;;3.99;49.89;101577.66;146602;648;46020;-70
2022/02/04 05:56:29;;;;;;;;;21.75;20.75;;;;;5.12;49.37;101746.25;146597;592;46016;-70
2022/02/04 06:04:17;;;;;;;;;19.75;19.75;;;;;5.04;50.34;101760.97;146603;751;46016;-69
2022/02/04 06:07:49;;;;;;;;;;;;;;;;;;;;;
2022/02/04 06:11:20;;;;;;;;;22.75;19.00;;;;;4.82;51.14;101777.03;146604;564;46029;-69
2022/02/04 06:25:24;;;;;;;;;22.00;18.00;;;;;4.81;52.01;101797.44;146602;578;46010;-69
2022/02/04 06:28:38;;;;;;;;;17.75;17.25;;;;;5.01;51.49;101795.00;146601;576;47008;-71
2022/02/04 06:35:35;;;;;;;;;18.50;14.75;;;;;5.76;50.49;101793.06;146602;610;46008;-69
2022/02/04 06:39:34;;;;;;;;;;;;;;;;;;;;;
2022/02/04 06:42:52;;;;;;;;;52.50;38.25;;;;;5.65;49.34;101576.00;146611;627;46009;-69
2022/02/04 06:46:05;;;;;;;;;22.00;18.25;;;;;7.17;47.91;101803.37;146602;573;46010;-71
2022/02/04 06:49:01;;;;;;;;;17.50;14.75;;;;;7.49;46.77;101802.50;146603;669;46020;-71
2022/02/04 06:52:12;;;;;;;;;15.25;14.25;;;;;8.17;46.68;101797.53;146600;563;46016;-74
2022/02/04 06:59:14;;;;;;;;;14.75;13.00;;;;;9.83;44.40;101801.34;146604;616;46912;-76
2022/02/04 07:03:04;;;;;;;;;15.50;15.50;;;;;10.24;44.81;101795.59;146602;585;46020;-74
2022/02/04 07:06:23;;;;;;;;;17.00;15.00;;;;;9.60;46.20;101579.63;146601;593;46017;-70
2022/02/04 07:09:54;;;;;;;;;16.00;15.25;;;;;11.44;43.82;101788.09;146606;612;46020;-69
2022/02/04 07:13:12;;;;;;;;;17.25;15.25;;;;;11.87;42.30;101783.03;146604;564;46919;-70
2022/02/04 07:16:38;;;;;;;;;21.00;18.00;;;;;11.17;45.41;101613.25;146603;605;47008;-70
2022/02/04 07:23:48;;;;;;;;;21.00;21.00;;;;;12.88;44.22;101782.28;146604;586;46008;-70
2022/02/04 07:27:16;;;;;;;;;22.00;21.25;;;;;12.09;41.75;101617.22;146601;612;46923;-70
2022/02/04 07:30:32;;;;;;;;;23.25;22.00;;;;;13.22;43.14;101770.34;146603;597;46020;-71
2022/02/04 07:33:43;;;;;;;;;26.00;23.50;;;;;13.40;43.93;101776.63;146600;592;46921;-71
2022/02/04 07:43:36;;;;;;;;;36.50;31.75;;;;;13.79;42.12;101788.34;146605;569;47008;-70
2022/02/04 07:47:05;;;;;;;;;41.25;35.00;;;;;13.78;40.37;101783.97;146598;609;46016;-72
2022/02/04 07:50:22;;;;;;;;;;;;;;;;;;;;;
2022/02/04 07:53:30;;;;;;;;;36.50;31.50;;;;;13.53;40.73;101791.25;146601;583;46022;-70
2022/02/04 07:56:51;;;;;;;;;32.25;30.75;;;;;12.45;41.45;101595.03;146600;637;46021;-70
2022/02/04 08:00:02;;;;;;;;;34.00;30.75;;;;;13.57;42.88;101790.59;146601;621;46010;-70
2022/02/04 08:03:54;;;;;;;;;33.50;30.00;;;;;13.69;42.19;101786.06;146603;587;46021;-70
2022/02/04 08:13:14;;;;;;;;;24.75;23.00;;;;;13.58;39.11;101787.16;146600;615;46031;-70
2022/02/04 08:19:24;;;;;;;;;25.50;21.75;;;;;13.49;39.36;101784.03;146600;724;46017;-69
2022/02/04 08:54:58;;;;;;;;;13.25;11.75;;;;;13.69;41.11;101803.41;146608;596;46008;-69
2022/02/04 08:58:07;;;;;;;;;17.25;14.50;;;;;14.09;41.42;101803.91;146605;611;47010;-69
2022/02/04 09:01:05;;;;;;;;;15.75;13.50;;;;;14.41;39.59;101797.78;146607;584;46020;-69
2022/02/04 09:04:06;;;;;;;;;18.75;16.75;;;;;14.69;36.31;101794.03;146606;599;46011;-69
2022/02/04 09:07:04;;;;;;;;;13.50;12.50;;;;;14.62;33.61;101792.81;146608;665;46008;-69
2022/02/04 09:10:08;;;;;;;;;10.25;7.00;;;;;14.35;36.37;101791.34;146606;587;46010;-70
2022/02/04 09:19:24;;;;;;;;;9.25;8.50;;;;;14.09;35.06;101791.75;146608;603;46008;-69
2022/02/04 09:25:27;;;;;;;;;9.50;9.25;;;;;13.85;36.59;101798.22;146608;615;46008;-69
2022/02/04 09:28:20;;;;;;;;;13.50;11.50;;;;;13.95;38.19;101800.53;146606;633;47010;-70
2022/02/04 09:31:12;;;;;;;;;12.00;10.75;;;;;14.14;37.38;101796.31;146608;648;46020;-69
2022/02/04 09:34:04;;;;;;;;;13.25;12.00;;;;;14.32;35.76;101782.53;146604;716;47010;-69
2022/02/04 09:36:56;;;;;;;;;9.75;9.75;;;;;14.38;36.02;101788.91;146606;604;46020;-69
2022/02/04 09:39:49;;;;;;;;;12.75;11.00;;;;;14.37;37.20;101802.78;146608;600;46010;-69
2022/02/04 09:42:42;;;;;;;;;10.00;9.00;;;;;14.41;36.17;101802.09;146605;670;46021;-69
2022/02/04 09:45:36;;;;;;;;;10.50;9.25;;;;;14.50;36.54;101793.03;146605;629;46016;-69
2022/02/04 09:48:29;;;;;;;;;8.75;8.75;;;;;14.65;37.39;101792.09;146607;591;47008;-69
2022/02/04 09:51:28;;;;;;;;;10.25;10.25;;;;;14.88;36.09;101782.81;146604;582;46016;-69
2022/02/04 10:10:53;;;;;;;;;14.00;11.50;;;;;15.12;35.26;101768.38;146602;685;46017;-73
2022/02/04 10:13:59;;;;;;;;;12.50;9.75;;;;;15.16;33.92;101766.81;146607;606;46012;-73
2022/02/04 10:17:21;;;;;;;;;12.25;9.75;;;;;15.20;36.76;101758.28;146606;646;46010;-72
2022/02/04 10:20:14;;;;;;;;;18.00;14.75;;;;;15.33;34.29;101760.69;146602;615;46914;-73
2022/02/04 10:23:07;;;;;;;;;10.00;9.00;;;;;15.38;31.87;101758.28;146606;622;47010;-72
2022/02/04 10:26:12;;;;;;;;;9.00;8.25;;;;;15.19;34.04;101748.66;146604;569;46021;-73
2022/02/04 10:29:04;;;;;;;;;10.25;10.25;;;;;15.13;34.26;101754.47;146605;567;47010;-73
2022/02/04 10:31:59;;;;;;;;;14.75;14.50;;;;;15.24;35.32;101750.69;146607;601;46020;-73
2022/02/04 10:35:09;;;;;;;;;9.75;9.00;;;;;15.37;35.29;101754.78;146605;571;46016;-73
2022/02/04 10:38:12;;;;;;;;;10.00;8.50;;;;;15.46;33.52;101742.16;146610;630;46020;-74
2022/02/04 10:41:15;;;;;;;;;18.75;17.25;;;;;15.61;32.73;101733.25;146605;666;46017;-74
2022/02/04 10:44:23;;;;;;;;;12.75;10.50;;;;;15.64;32.99;101739.53;146607;594;46020;-73
2022/02/04 10:47:15;;;;;;;;;10.25;9.00;;;;;15.70;32.58;101720.66;146601;587;46017;-73
2022/02/04 10:50:13;;;;;;;;;5.75;5.50;;;;;15.77;30.64;101727.06;146612;578;46008;-73
2022/02/04 11:00:16;;;;;;;;;6.75;5.75;;;;;16.24;33.16;101716.09;146608;564;46914;-73
2022/02/04 11:03:11;;;;;;;;;6.00;6.00;;;;;16.43;31.93;101699.47;146612;692;46021;-72
2022/02/04 11:06:17;;;;;;;;;12.50;12.50;;;;;16.56;30.46;101696.53;146605;611;46010;-73
2022/02/04 11:30:54;;;;;;;;;7.50;6.50;;;;;17.07;29.50;101660.28;146608;688;46020;-72
2022/02/04 11:35:37;;;;;;;;;7.50;7.25;;;;;16.84;29.36;101651.47;146607;581;46020;-73
2022/02/04 11:48:27;;;;;;;;;9.50;7.75;;;;;15.48;33.40;101635.97;146609;570;46008;-74
2022/02/04 11:52:08;;;;;;;;;9.00;8.00;;;;;14.01;35.19;101454.03;146604;565;46010;-71
2022/02/04 11:55:02;;;;;;;;;7.00;6.00;;;;;14.85;29.54;101637.31;146614;569;46008;-70
2022/02/04 11:58:03;;;;;;;;;6.50;6.00;;;;;14.66;34.06;101632.94;146609;569;46021;-71
2022/02/04 12:01:07;;;;;;;;;8.00;6.50;;;;;14.59;35.63;101640.37;146611;672;46008;-72
2022/02/04 12:04:23;;;;;;;;;5.25;5.25;;;;;13.09;34.09;101396.41;146605;575;46016;-71
2022/02/04 12:08:13;;;;;;;;;6.25;5.75;;;;;13.15;33.25;101414.94;146613;666;47008;-70
2022/02/04 12:11:11;;;;;;;;;6.50;6.50;;;;;14.41;33.29;101637.72;146605;574;47010;-68
2022/02/04 12:14:17;;;;;;;;;7.75;6.75;;;;;14.23;30.92;101635.97;146612;569;46008;-72
2022/02/04 12:17:13;;;;;;;;;7.50;6.50;;;;;13.94;32.63;101628.38;146606;673;46017;-74
2022/02/04 12:20:05;;;;;;;;;7.75;7.75;;;;;13.65;32.93;101624.25;146607;579;46008;-74
2022/02/04 12:23:01;;;;;;;;;9.00;8.00;;;;;13.36;33.66;101627.06;146606;599;46017;-75
2022/02/04 12:26:20;;;;;;;;;8.00;7.25;;;;;12.13;35.06;101438.91;146609;569;46020;-74
2022/02/04 12:29:30;;;;;;;;;7.00;5.75;;;;;13.28;35.62;101619.66;146607;589;46016;-74
2022/02/04 12:32:23;;;;;;;;;7.25;7.25;;;;;13.34;34.57;101615.66;146609;698;46021;-74
2022/02/04 12:35:21;;;;;;;;;10.50;9.00;;;;;13.22;33.62;101608.88;146604;572;47010;-74
2022/02/04 12:38:13;;;;;;;;;7.00;7.00;;;;;13.24;35.89;101609.81;146610;674;46008;-74
2022/02/04 12:41:06;;;;;;;;;8.50;7.00;;;;;13.43;34.54;101612.66;146605;686;47010;-74
2022/02/04 12:44:01;;;;;;;;;8.50;7.00;;;;;13.57;34.31;101613.41;146611;684;45025;-75
2022/02/04 12:47:05;;;;;;;;;10.25;9.25;;;;;13.47;33.10;101609.41;146607;602;46016;-74
2022/02/04 12:50:07;;;;;;;;;4.00;4.00;;;;;13.38;35.23;101601.09;146613;563;46008;-75
2022/02/04 12:52:59;;;;;;;;;10.50;9.25;;;;;13.36;36.03;101601.03;146606;713;46017;-74
2022/02/04 13:09:50;;;;;;;;;8.25;7.00;;;;;13.74;34.90;101599.56;146610;583;46008;-74
2022/02/04 13:12:35;;;;;;;;;8.50;8.50;;;;;13.77;33.72;101590.97;146604;588;46016;-75
2022/02/04 13:15:28;;;;;;;;;7.00;6.25;;;;;13.78;34.87;101587.56;146609;604;46008;-75
2022/02/04 13:18:23;;;;;;;;;9.00;8.75;;;;;13.97;36.04;101584.19;146605;580;47010;-75
2022/02/04 13:21:16;;;;;;;;;10.50;8.50;;;;;14.23;34.84;101585.50;146605;630;46020;-75
2022/02/04 13:24:10;;;;;;;;;8.25;7.75;;;;;14.53;35.48;101588.78;146606;639;46016;-74
2022/02/04 13:27:16;;;;;;;;;6.75;6.75;;;;;14.81;35.60;101575.34;146612;621;46020;-74
2022/02/04 13:30:31;;;;;;;;;10.50;9.50;;;;;14.91;32.40;101584.50;146607;616;46010;-74
2022/02/04 13:33:25;;;;;;;;;8.25;8.25;;;;;14.85;33.07;101574.66;146609;603;46008;-74
2022/02/04 13:36:45;;;;;;;;;9.25;9.00;;;;;14.77;32.70;101569.09;146606;594;46010;-74
2022/02/04 13:39:56;;;;;;;;;9.75;8.75;;;;;14.79;33.66;101570.03;146613;600;46020;-74
2022/02/04 13:42:52;;;;;;;;;9.50;8.00;;;;;14.88;33.50;101580.03;146604;579;46916;-74
2022/02/04 13:45:46;;;;;;;;;7.00;6.75;;;;;15.04;31.67;101578.12;146611;564;46008;-70
2022/02/04 13:48:53;;;;;;;;;7.00;6.00;;;;;15.24;33.42;101569.53;146603;588;47010;-75
2022/02/04 13:52:02;;;;;;;;;12.00;9.00;;;;;15.51;33.74;101580.28;146609;647;45021;-68
2022/02/04 13:55:28;;;;;;;;;9.50;8.25;;;;;15.74;34.43;101583.09;146606;620;46016;-74
2022/02/04 13:58:53;;;;;;;;;6.00;6.00;;;;;15.87;33.61;101573.22;146613;570;46020;-76
2022/02/04 14:01:55;;;;;;;;;9.75;9.00;;;;;15.96;28.96;101570.13;146607;651;47010;-76
2022/02/04 14:05:03;;;;;;;;;11.00;11.00;;;;;15.93;34.01;101576.09;146609;620;47012;-75
2022/02/04 14:07:56;;;;;;;;;6.50;5.75;;;;;16.11;31.38;101572.50;146606;691;46010;-76
2022/02/04 14:10:59;;;;;;;;;8.33;8.33;;;;;16.34;31.99;101568.22;146610;611;47008;-76
2022/02/04 14:13:57;;;;;;;;;8.50;7.25;;;;;16.51;32.73;101569.81;146607;615;46017;-76
2022/02/04 14:16:56;;;;;;;;;14.25;14.00;;;;;16.63;32.22;101566.75;146609;576;46020;-75
2022/02/04 14:19:48;;;;;;;;;16.00;13.00;;;;;16.68;31.02;101560.00;146606;604;46010;-76
2022/02/04 14:22:49;;;;;;;;;6.00;6.00;;;;;16.32;29.45;101535.84;146607;644;46021;-77
2022/02/04 14:25:59;;;;;;;;;10.75;9.75;;;;;15.90;31.19;101562.91;146604;633;46016;-74
2022/02/04 14:29:05;;;;;;;;;16.00;12.75;;;;;15.41;31.46;101560.69;146608;571;46021;-74
2022/02/04 14:32:10;;;;;;;;;9.25;8.75;;;;;15.09;32.71;101577.53;146606;585;46916;-75
2022/02/04 14:35:15;;;;;;;;;6.25;5.25;;;;;14.76;32.52;101563.78;146610;640;46012;-75
2022/02/04 14:54:07;;;;;;;;;12.75;12.00;;;;;13.44;33.67;101569.28;146606;572;47006;-74
2022/02/04 15:00:33;;;;;;;;;18.25;16.75;;;;;13.07;34.16;101562.03;146607;614;46008;-75
2022/02/04 15:03:29;;;;;;;;;9.00;7.75;;;;;12.90;33.83;101563.75;146605;660;46025;-75
2022/02/04 15:06:34;;;;;;;;;16.25;14.75;;;;;12.77;34.06;101564.75;146611;667;46008;-76
2022/02/04 15:09:26;;;;;;;;;9.25;8.75;;;;;12.58;34.53;101559.31;146602;624;46016;-75
2022/02/04 15:12:18;;;;;;;;;17.00;16.50;;;;;12.34;33.28;101562.34;146609;582;46020;-76
2022/02/04 15:15:11;;;;;;;;;22.75;22.75;;;;;12.20;36.14;101563.25;146603;599;47012;-76
2022/02/04 15:18:03;;;;;;;;;14.75;11.25;;;;;12.14;34.82;101566.38;146605;568;46020;-75
2022/02/04 15:21:00;;;;;;;;;10.75;9.25;;;;;12.06;34.44;101559.84;146605;596;46017;-74
2022/02/04 15:23:54;;;;;;;;;10.00;10.00;;;;;11.97;35.01;101560.19;146603;597;47008;-75
2022/02/04 15:26:46;;;;;;;;;20.50;19.25;;;;;11.87;34.19;101556.94;146602;603;46017;-76
2022/02/04 15:29:43;;;;;;;;;33.00;29.50;;;;;11.76;34.47;101556.28;146607;602;46020;-75
2022/02/04 15:32:36;;;;;;;;;21.50;19.75;;;;;11.60;35.36;101544.09;146601;582;47012;-76
2022/02/04 15:35:30;;;;;;;;;29.75;29.25;;;;;11.45;36.93;101550.94;146608;575;46012;-76
2022/02/04 15:38:22;;;;;;;;;38.50;31.25;;;;;11.32;38.65;101555.41;146602;672;46016;-75
2022/02/04 15:41:15;;;;;;;;;28.25;27.25;;;;;11.22;38.03;101544.38;146607;633;46020;-75
2022/02/04 15:47:51;;;;;;;;;32.75;30.00;;;;;10.86;39.91;101544.75;146607;596;46020;-75
2022/02/04 15:51:14;;;;;;;;;49.25;40.50;;;;;10.60;40.41;101552.59;146600;566;46016;-75
2022/02/04 15:57:43;;;;;;;;;12.75;9.00;;;;;10.09;41.91;101567.41;146601;612;46010;-75
2022/02/04 16:00:57;;;;;;;;;25.75;23.00;;;;;9.93;42.21;101564.56;146605;611;45020;-76
2022/02/04 16:07:04;;;;;;;;;16.25;13.25;;;;;9.50;43.16;101564.22;146603;643;46008;-76
2022/02/04 16:13:23;;;;;;;;;16.50;15.50;;;;;9.02;43.88;101560.03;146602;576;46021;-76
2022/02/04 16:19:28;;;;;;;;;10.75;10.50;;;;;8.75;45.29;101569.28;146604;628;46022;-76
2022/02/04 16:25:59;;;;;;;;;13.00;12.25;;;;;8.56;45.50;101567.06;146603;576;46022;-76
2022/02/04 16:28:52;;;;;;;;;10.75;10.75;;;;;8.44;45.80;101579.09;146600;584;46010;-76
2022/02/04 16:31:44;;;;;;;;;11.50;11.25;;;;;8.34;45.72;101583.53;146605;594;46008;-75
2022/02/04 16:34:36;;;;;;;;;15.50;14.50;;;;;8.20;46.21;101571.31;146599;591;47915;-75
2022/02/04 16:37:34;;;;;;;;;25.25;23.75;;;;;8.07;46.51;101581.53;146604;572;46008;-75
2022/02/04 16:40:27;;;;;;;;;30.50;25.00;;;;;7.94;46.78;101579.69;146599;573;47010;-75
2022/02/04 16:43:19;;;;;;;;;26.25;25.50;;;;;7.83;46.43;101575.41;146604;604;46021;-77
2022/02/04 16:46:12;;;;;;;;;32.00;30.00;;;;;7.79;46.80;101578.56;146601;596;46010;-75
2022/02/04 16:49:05;;;;;;;;;29.25;28.25;;;;;7.74;46.59;101573.03;146607;609;46008;-75
2022/02/04 16:51:57;;;;;;;;;43.00;33.00;;;;;7.73;47.26;101576.41;146606;564;45016;-76
2022/02/04 16:54:50;;;;;;;;;16.00;14.25;;;;;7.74;46.69;101569.53;146606;586;45916;-76
2022/02/04 16:57:43;;;;;;;;;12.75;12.50;;;;;7.72;46.52;101564.25;146605;583;47010;-76
2022/02/04 17:00:35;;;;;;;;;16.25;14.50;;;;;7.74;46.30;101572.13;146609;570;46020;-76
2022/02/04 17:03:27;;;;;;;;;12.75;11.00;;;;;7.74;46.64;101573.03;146609;622;46012;-75
2022/02/04 17:06:20;;;;;;;;;13.50;13.50;;;;;7.73;46.50;101571.22;146611;596;45021;-76
2022/02/04 17:09:21;;;;;;;;;12.00;10.50;;;;;7.73;46.07;101573.81;146604;661;46016;-75
2022/02/04 17:12:16;;;;;;;;;17.75;13.00;;;;;7.70;45.98;101572.69;146609;649;46008;-76
2022/02/04 17:15:09;;;;;;;;;11.50;11.25;;;;;7.64;46.70;101573.13;146605;586;46016;-75
2022/02/04 17:18:02;;;;;;;;;17.25;17.25;;;;;7.61;46.23;101565.13;146609;566;46008;-76
2022/02/04 17:20:55;;;;;;;;;9.50;9.50;;;;;7.58;46.60;101570.06;146607;582;46016;-76
2022/02/04 17:23:52;;;;;;;;;11.00;11.00;;;;;7.56;46.63;101571.63;146606;644;46020;-75
2022/02/04 17:26:44;;;;;;;;;12.00;10.25;;;;;7.55;46.66;101568.13;146607;595;45914;-76
2022/02/04 17:29:37;;;;;;;;;12.00;12.00;;;;;7.59;46.16;101577.00;146607;607;46020;-76
2022/02/04 17:32:29;;;;;;;;;11.75;11.50;;;;;7.63;45.80;101576.44;146604;601;46016;-76
2022/02/04 17:35:24;;;;;;;;;18.25;17.00;;;;;7.68;45.87;101575.13;146607;584;46020;-76
2022/02/04 17:38:17;;;;;;;;;17.25;15.00;;;;;7.69;45.81;101576.91;146603;664;46033;-76
2022/02/04 17:41:10;;;;;;;;;16.00;15.50;;;;;7.73;45.76;101570.34;146610;628;45021;-76
2022/02/04 17:44:02;;;;;;;;;18.25;17.00;;;;;7.73;45.79;101565.19;146601;595;46016;-76
2022/02/04 17:46:55;;;;;;;;;18.50;17.50;;;;;7.73;45.99;101565.19;146608;577;46020;-76
2022/02/04 17:53:04;;;;;;;;;18.50;16.25;;;;;7.67;46.14;101565.59;146605;666;47008;-76
2022/02/04 17:56:02;;;;;;;;;18.25;17.25;;;;;7.61;46.61;101567.72;146605;615;46031;-76
2022/02/04 18:02:33;;;;;;;;;13.00;11.00;;;;;7.51;46.47;101571.28;146604;578;47011;-76
2022/02/04 18:05:37;;;;;;;;;14.25;13.75;;;;;7.51;46.45;101565.22;146609;595;46020;-76
2022/02/04 18:08:29;;;;;;;;;23.50;19.50;;;;;7.49;46.45;101569.34;146606;590;46010;-76
2022/02/04 18:11:21;;;;;;;;;44.00;35.00;;;;;7.48;46.46;101575.31;146607;562;46009;-76
2022/02/04 18:14:14;;;;;;;;;39.50;33.75;;;;;7.45;46.37;101568.22;146606;609;46010;-75
2022/02/04 18:17:07;;;;;;;;;19.00;18.25;;;;;7.45;46.06;101578.53;146608;593;46008;-76
2022/02/04 18:19:59;;;;;;;;;21.50;21.50;;;;;7.48;47.10;101577.88;146604;582;46017;-76
2022/02/04 18:22:53;;;;;;;;;57.00;43.50;;;;;7.54;47.09;101578.31;146608;608;46008;-75
2022/02/04 18:25:46;;;;;;;;;53.00;40.00;;;;;7.65;46.15;101582.66;146604;606;46028;-76
2022/02/04 18:28:38;;;;;;;;;47.00;38.50;;;;;7.71;46.19;101571.88;146609;576;46008;-76
2022/02/04 18:31:32;;;;;;;;;49.25;38.50;;;;;7.74;45.96;101583.34;146605;585;46010;-76
2022/02/04 18:34:24;;;;;;;;;52.50;41.25;;;;;7.79;45.85;101584.59;146604;685;46021;-76
2022/02/04 18:37:18;;;;;;;;;47.75;38.25;;;;;7.83;46.45;101578.87;146603;630;46016;-76
2022/02/04 18:40:45;;;;;;;;;45.00;37.25;;;;;7.87;46.34;101586.06;146607;593;46012;-75
2022/02/04 18:50:21;;;;;;;;;51.00;41.25;;;;;7.85;46.25;101579.91;146604;607;46016;-75
2022/02/04 18:53:34;;;;;;;;;51.00;42.50;;;;;7.81;46.62;101574.38;146605;601;46020;-76
2022/02/04 18:59:49;;;;;;;;;53.75;43.00;;;;;7.61;45.89;101563.44;146605;579;46020;-76
2022/02/04 19:02:45;;;;;;;;;55.50;41.50;;;;;7.55;47.05;101565.56;146605;586;46010;-76
2022/02/04 19:05:43;;;;;;;;;56.00;42.75;;;;;7.47;47.56;101564.06;146610;574;45020;-76
2022/02/04 19:08:41;;;;;;;;;52.25;40.00;;;;;7.39;47.29;101571.22;146604;626;47013;-76
2022/02/04 19:11:44;;;;;;;;;41.75;33.25;;;;;7.30;47.89;101567.94;146602;592;47916;-76
2022/02/04 19:14:48;;;;;;;;;27.50;26.25;;;;;7.25;48.25;101568.34;146608;571;46010;-76
2022/02/04 19:17:46;;;;;;;;;25.00;21.50;;;;;7.14;48.19;101572.69;146610;627;46021;-75
2022/02/04 19:20:43;;;;;;;;;41.50;37.00;;;;;7.06;48.51;101569.47;146607;587;46028;-76
2022/02/04 19:23:37;;;;;;;;;34.50;30.25;;;;;6.97;48.85;101579.06;146605;656;46020;-76
2022/02/04 19:26:29;;;;;;;;;45.75;38.50;;;;;6.87;48.60;101577.44;146605;647;47010;-76
2022/02/04 19:29:24;;;;;;;;;49.00;39.75;;;;;6.79;48.24;101581.12;146609;572;46008;-76
2022/02/04 19:32:16;;;;;;;;;46.50;37.00;;;;;6.72;48.20;101582.28;146607;617;45914;-76
2022/02/04 19:35:08;;;;;;;;;51.50;39.75;;;;;6.65;48.71;101581.66;146607;597;47008;-76
2022/02/04 19:38:00;;;;;;;;;59.00;47.75;;;;;6.63;48.54;101590.94;146606;597;47010;-76
2022/02/04 19:40:53;;;;;;;;;62.75;51.00;;;;;6.63;49.09;101588.38;146607;669;45021;-75
2022/02/04 19:43:48;;;;;;;;;68.00;52.25;;;;;6.61;49.09;101590.84;146606;618;46010;-76
2022/02/04 19:46:41;;;;;;;;;56.50;46.00;;;;;6.57;49.60;101581.03;146608;605;45021;-76
2022/02/04 19:49:45;;;;;;;;;35.75;33.00;;;;;6.48;50.02;101577.75;146605;611;45914;-76
2022/02/04 19:53:07;;;;;;;;;37.75;33.75;;;;;6.36;49.78;101585.38;146606;573;46020;-76
2022/02/04 20:25:01;;;;;;;;;40.25;34.00;;;;;6.06;50.76;101546.78;146607;606;46008;-76
2022/02/04 20:27:59;;;;;;;;;38.50;33.50;;;;;6.07;50.90;101548.59;146606;700;46016;-76
2022/02/04 20:30:52;;;;;;;;;30.75;27.75;;;;;5.99;50.76;101556.59;146608;595;46020;-76